Time;durP1;ratioP1;P1;durP2;ratioP2;P2;SDS_P1;SDS_P2;PMS_P1;PMS_P2;Temp;Humidity;BMP_temperature;BMP_pressure;BME280_temperature;BME280_humidity;BME280_pressure;Samples;Min_cycle;Max_cycle;Signal;HPM_P1;HPM_P2
2022/06/10 00:00:58;;;;;;;7.07;2.38;;;12.70;99.90;;;;;;5085759;28;20044;-69
2022/06/10 00:03:25;;;;;;;9.23;3.10;;;12.80;99.90;;;;;;5081972;28;20413;-69
2022/06/10 00:05:58;;;;;;;10.85;3.13;;;12.70;99.90;;;;;;5087626;28;20043;-69
2022/06/10 00:08:27;;;;;;;14.57;3.78;;;12.80;99.90;;;;;;5086672;28;20059;-69
2022/06/10 00:10:53;;;;;;;8.65;3.05;;;12.70;99.90;;;;;;5086979;28;20085;-68
2022/06/10 00:13:23;;;;;;;7.85;2.90;;;12.80;99.90;;;;;;5087660;28;20157;-69
2022/06/10 00:15:49;;;;;;;14.88;3.03;;;12.80;99.90;;;;;;5080165;28;20134;-69
2022/06/10 00:18:16;;;;;;;9.68;2.78;;;12.80;99.90;;;;;;5088802;28;20048;-69
2022/06/10 00:20:42;;;;;;;13.45;2.78;;;12.80;99.90;;;;;;5085658;28;20404;-69
2022/06/10 00:23:09;;;;;;;14.95;3.38;;;12.70;99.90;;;;;;5078675;28;20071;-69
2022/06/10 00:25:36;;;;;;;14.32;3.25;;;12.70;99.90;;;;;;5084436;28;20352;-69
2022/06/10 00:28:02;;;;;;;10.20;2.93;;;12.70;99.90;;;;;;5086561;28;20044;-69
2022/06/10 00:30:30;;;;;;;9.23;3.03;;;12.70;99.90;;;;;;5085989;28;20051;-69
2022/06/10 00:32:59;;;;;;;11.48;3.22;;;12.70;99.90;;;;;;5088121;28;20122;-70
2022/06/10 00:35:26;;;;;;;7.90;2.90;;;12.70;99.90;;;;;;5087434;28;20051;-69
2022/06/10 00:37:53;;;;;;;13.70;3.40;;;12.70;99.90;;;;;;5088371;28;20086;-68
2022/06/10 00:40:22;;;;;;;10.50;2.90;;;12.70;99.90;;;;;;5070215;28;20040;-68
2022/06/10 00:42:49;;;;;;;12.93;2.95;;;12.70;99.90;;;;;;5083805;28;20056;-69
2022/06/10 00:45:48;;;;;;;13.13;3.17;;;12.70;99.90;;;;;;5086934;28;20086;-68
2022/06/10 00:48:19;;;;;;;14.27;2.90;;;12.70;99.90;;;;;;5091264;28;20048;-69
2022/06/10 00:50:46;;;;;;;17.27;3.00;;;12.70;99.90;;;;;;5081305;28;20052;-69
2022/06/10 00:53:16;;;;;;;10.88;3.08;;;12.70;99.90;;;;;;5086696;28;20044;-68
2022/06/10 00:55:44;;;;;;;9.50;3.35;;;12.70;99.90;;;;;;5087510;28;20052;-68
2022/06/10 00:58:20;;;;;;;17.95;2.95;;;12.70;99.90;;;;;;5085666;28;20048;-68
2022/06/10 01:00:46;;;;;;;12.38;3.38;;;12.70;99.90;;;;;;5080000;28;20047;-68
2022/06/10 01:03:12;;;;;;;13.07;3.05;;;12.70;99.90;;;;;;5082503;28;20110;-68
2022/06/10 01:05:38;;;;;;;13.95;3.47;;;12.70;99.90;;;;;;5061052;28;20075;-69
2022/06/10 01:08:11;;;;;;;10.40;3.28;;;12.70;99.90;;;;;;5086252;28;20331;-69
2022/06/10 01:11:06;;;;;;;11.38;2.90;;;12.80;99.90;;;;;;5078753;28;20080;-69
2022/06/10 01:13:44;;;;;;;11.18;3.20;;;12.70;99.90;;;;;;5087253;28;20048;-68
2022/06/10 01:16:51;;;;;;;11.70;3.08;;;12.60;99.90;;;;;;5083136;28;20045;-69
2022/06/10 01:19:45;;;;;;;11.55;2.90;;;12.70;99.90;;;;;;5076616;28;20051;-69
2022/06/10 01:22:19;;;;;;;9.75;2.85;;;12.70;99.90;;;;;;5092139;28;20044;-69
2022/06/10 01:24:59;;;;;;;7.35;2.88;;;12.70;99.90;;;;;;5086722;28;20139;-69
2022/06/10 01:28:03;;;;;;;9.15;2.88;;;12.70;99.90;;;;;;5091011;28;20055;-69
2022/06/10 01:31:07;;;;;;;10.73;3.08;;;12.60;99.90;;;;;;5081238;28;20086;-68
2022/06/10 01:33:48;;;;;;;11.85;3.00;;;12.60;99.90;;;;;;5092356;28;20044;-69
2022/06/10 01:36:39;;;;;;;13.30;2.97;;;12.60;99.90;;;;;;5102867;28;20051;-69
2022/06/10 01:39:32;;;;;;;12.40;3.47;;;12.60;99.90;;;;;;5089207;28;20047;-68
2022/06/10 01:42:15;;;;;;;12.52;3.08;;;12.60;99.90;;;;;;5087347;28;20527;-69
2022/06/10 01:44:54;;;;;;;12.88;3.22;;;12.50;99.90;;;;;;5082435;28;20097;-69
2022/06/10 01:47:23;;;;;;;11.27;3.30;;;12.50;99.90;;;;;;5070724;28;20055;-69
2022/06/10 01:49:55;;;;;;;10.65;3.35;;;12.50;99.90;;;;;;5090164;28;20044;-69
2022/06/10 01:52:37;;;;;;;14.63;3.30;;;12.50;99.90;;;;;;5087366;28;20111;-68
2022/06/10 01:55:11;;;;;;;17.10;3.75;;;12.50;99.90;;;;;;5102071;28;20036;-67
2022/06/10 01:57:44;;;;;;;12.80;3.50;;;12.50;99.90;;;;;;5080618;28;20532;-69
2022/06/10 02:00:21;;;;;;;11.80;3.55;;;12.50;99.90;;;;;;5083123;28;20516;-68
2022/06/10 02:02:58;;;;;;;10.25;3.25;;;12.40;99.90;;;;;;5088986;28;20525;-68
2022/06/10 02:05:27;;;;;;;8.90;3.43;;;12.40;99.90;;;;;;5086659;28;20456;-67
2022/06/10 02:08:14;;;;;;;13.88;3.45;;;12.30;99.90;;;;;;5090745;28;20048;-69
2022/06/10 02:11:20;;;;;;;12.27;3.63;;;12.30;99.90;;;;;;5090846;28;20052;-68
2022/06/10 02:14:00;;;;;;;17.08;3.72;;;12.30;99.90;;;;;;5089884;28;20043;-68
2022/06/10 02:16:32;;;;;;;10.32;3.65;;;12.30;99.90;;;;;;5094110;28;20060;-69
2022/06/10 02:19:11;;;;;;;11.60;3.63;;;12.20;99.90;;;;;;5084952;28;20055;-68
2022/06/10 02:21:57;;;;;;;;;;;12.30;99.90;;;;;;5088889;28;20570;-69
2022/06/10 02:24:37;;;;;;;12.18;4.15;;;12.30;99.90;;;;;;5076346;28;19924;-69
2022/06/10 02:27:20;;;;;;;11.63;3.15;;;12.20;99.90;;;;;;5085101;28;20048;-68
2022/06/10 02:29:58;;;;;;;10.35;4.10;;;12.20;99.90;;;;;;5095918;28;20071;-69
2022/06/10 02:32:24;;;;;;;18.75;3.83;;;12.20;99.90;;;;;;5084635;28;20055;-68
2022/06/10 02:34:50;;;;;;;17.10;3.28;;;12.20;99.90;;;;;;5089302;28;20044;-69
2022/06/10 02:37:41;;;;;;;13.20;3.85;;;12.20;99.90;;;;;;5078716;28;20044;-69
2022/06/10 02:40:33;;;;;;;16.75;3.30;;;12.20;99.90;;;;;;5087389;28;20048;-69
2022/06/10 02:43:19;;;;;;;14.23;3.22;;;12.20;99.90;;;;;;5082696;28;20040;-67
2022/06/10 02:46:26;;;;;;;14.88;3.35;;;12.20;99.90;;;;;;5101227;28;20136;-68
2022/06/10 02:49:11;;;;;;;15.50;3.20;;;12.20;99.90;;;;;;5089142;28;20048;-66
2022/06/10 02:51:38;;;;;;;16.58;4.00;;;12.20;99.90;;;;;;5088785;28;20055;-68
2022/06/10 02:54:08;;;;;;;9.40;3.73;;;12.20;99.90;;;;;;5090088;28;20119;-67
2022/06/10 02:56:33;;;;;;;10.65;3.33;;;12.20;99.90;;;;;;5086178;28;20306;-68
2022/06/10 03:02:04;;;;;;;8.48;3.03;;;12.10;99.90;;;;;;5081416;28;20848;-68
2022/06/10 03:04:35;;;;;;;16.25;4.03;;;12.10;99.90;;;;;;5087408;28;20051;-68
2022/06/10 03:07:26;;;;;;;18.45;3.75;;;12.10;99.90;;;;;;5088821;28;20048;-68
2022/06/10 03:10:03;;;;;;;10.95;3.42;;;12.10;99.90;;;;;;5088737;28;20040;-68
2022/06/10 03:12:49;;;;;;;9.98;3.70;;;12.10;99.90;;;;;;5090288;28;20405;-68
2022/06/10 03:15:43;;;;;;;15.93;3.92;;;12.10;99.90;;;;;;5088888;28;20458;-67
2022/06/10 03:18:16;;;;;;;19.15;4.18;;;12.00;99.90;;;;;;5081555;28;20048;-68
2022/06/10 03:21:24;;;;;;;14.73;3.65;;;12.00;99.90;;;;;;5086919;28;20043;-69
2022/06/10 03:24:13;;;;;;;12.25;4.10;;;12.00;99.90;;;;;;5073736;28;20053;-67
2022/06/10 03:26:58;;;;;;;12.80;3.72;;;12.00;99.90;;;;;;5090870;28;20125;-67
2022/06/10 03:29:44;;;;;;;11.50;3.92;;;12.00;99.90;;;;;;5076480;28;20048;-68
2022/06/10 03:32:23;;;;;;;11.10;4.15;;;12.10;99.90;;;;;;5087263;28;20597;-69
2022/06/10 03:35:27;;;;;;;14.13;3.42;;;12.00;99.90;;;;;;5088258;28;20146;-68
2022/06/10 03:37:54;;;;;;;11.07;3.83;;;12.00;99.90;;;;;;5088358;28;20083;-69
2022/06/10 03:40:26;;;;;;;12.27;3.40;;;12.00;99.90;;;;;;5069614;28;20398;-68
2022/06/10 03:42:57;;;;;;;14.68;3.58;;;12.00;99.90;;;;;;5084930;28;20058;-69
2022/06/10 03:45:26;;;;;;;13.82;3.60;;;12.00;99.90;;;;;;5084034;28;20436;-69
2022/06/10 03:47:52;;;;;;;11.43;3.20;;;12.10;99.90;;;;;;5084655;28;20044;-68
2022/06/10 03:50:24;;;;;;;15.35;3.53;;;12.10;99.90;;;;;;5077977;28;20505;-68
2022/06/10 03:52:50;;;;;;;12.85;3.85;;;12.10;99.90;;;;;;5073889;28;20379;-69
2022/06/10 03:55:19;;;;;;;16.13;3.45;;;12.10;99.90;;;;;;5080869;28;20051;-68
2022/06/10 03:57:46;;;;;;;14.77;3.35;;;12.10;99.90;;;;;;5088492;28;20393;-69
2022/06/10 04:00:17;;;;;;;11.15;3.17;;;12.10;99.90;;;;;;5081590;28;20040;-68
2022/06/10 04:02:43;;;;;;;10.15;2.90;;;12.10;99.90;;;;;;5083562;28;20055;-67
2022/06/10 04:05:10;;;;;;;11.88;3.67;;;12.10;99.90;;;;;;5089385;28;20047;-68
2022/06/10 04:07:37;;;;;;;11.15;3.28;;;12.20;99.90;;;;;;5087401;28;20505;-69
2022/06/10 04:10:04;;;;;;;20.00;3.70;;;12.20;99.90;;;;;;5084345;28;20513;-68
2022/06/10 04:12:29;;;;;;;12.48;3.47;;;12.20;99.90;;;;;;5089106;28;20040;-69
2022/06/10 04:14:55;;;;;;;14.10;3.53;;;12.30;99.90;;;;;;5086499;28;20048;-69
2022/06/10 04:17:21;;;;;;;15.43;3.53;;;12.30;99.90;;;;;;5083158;28;20491;-69
2022/06/10 04:19:47;;;;;;;14.15;3.90;;;12.30;99.90;;;;;;5088759;28;20413;-69
2022/06/10 04:22:12;;;;;;;13.50;3.35;;;12.30;99.90;;;;;;5084585;28;20044;-68
2022/06/10 04:24:38;;;;;;;9.07;3.30;;;12.30;99.90;;;;;;5085449;28;20088;-69
2022/06/10 04:27:05;;;;;;;10.82;3.10;;;12.40;99.90;;;;;;5079945;28;20055;-69
2022/06/10 04:29:30;;;;;;;12.55;3.50;;;12.40;99.90;;;;;;5086401;28;20040;-67
2022/06/10 04:31:56;;;;;;;16.77;4.05;;;12.40;99.90;;;;;;5085784;28;20055;-69
2022/06/10 04:34:22;;;;;;;11.75;3.15;;;12.60;99.90;;;;;;5084288;28;20055;-69
2022/06/10 04:36:48;;;;;;;14.07;3.55;;;12.60;99.90;;;;;;5084678;28;20032;-69
2022/06/10 04:39:13;;;;;;;14.68;3.47;;;12.60;99.90;;;;;;5088352;28;20039;-68
2022/06/10 04:41:39;;;;;;;12.27;4.32;;;12.70;99.90;;;;;;5078665;28;20464;-68
2022/06/10 04:44:06;;;;;;;18.77;3.63;;;12.80;99.90;;;;;;5083603;28;20044;-68
2022/06/10 04:46:38;;;;;;;22.73;3.80;;;12.80;99.90;;;;;;5085583;28;20486;-68
2022/06/10 04:49:05;;;;;;;20.52;4.38;;;12.90;99.90;;;;;;5100381;28;20044;-69
2022/06/10 04:51:31;;;;;;;9.67;3.20;;;13.10;99.90;;;;;;5081163;28;20083;-68
2022/06/10 04:53:57;;;;;;;12.55;3.78;;;13.10;99.90;;;;;;5084126;28;20555;-69
2022/06/10 04:56:23;;;;;;;15.60;3.58;;;13.20;99.90;;;;;;5086769;28;20044;-68
2022/06/10 04:58:49;;;;;;;19.00;4.35;;;13.30;99.90;;;;;;5101850;28;20117;-68
2022/06/10 05:01:15;;;;;;;22.60;5.07;;;13.50;99.90;;;;;;5090214;28;20155;-69
2022/06/10 05:03:40;;;;;;;12.73;3.13;;;13.60;99.90;;;;;;5087358;28;20144;-70
2022/06/10 05:06:06;;;;;;;13.18;3.45;;;13.70;99.90;;;;;;5092202;28;20509;-69
2022/06/10 05:08:32;;;;;;;17.75;3.78;;;13.90;99.90;;;;;;5091363;28;20123;-69
2022/06/10 05:10:58;;;;;;;14.45;3.67;;;14.00;99.90;;;;;;5092562;28;20114;-68
2022/06/10 05:13:24;;;;;;;18.70;4.10;;;14.10;99.90;;;;;;5080330;28;20128;-69
2022/06/10 05:15:50;;;;;;;18.13;3.53;;;14.10;99.90;;;;;;5107623;28;20048;-69
2022/06/10 05:18:18;;;;;;;14.68;4.32;;;14.20;99.90;;;;;;5088951;28;20455;-68
2022/06/10 05:20:45;;;;;;;16.30;3.08;;;14.20;99.90;;;;;;5089896;28;20040;-69
2022/06/10 05:23:14;;;;;;;18.77;3.25;;;14.30;99.90;;;;;;5092941;28;20568;-69
2022/06/10 05:25:40;;;;;;;18.40;3.88;;;14.30;99.90;;;;;;5084369;28;20036;-69
2022/06/10 05:28:07;;;;;;;14.57;3.30;;;14.30;99.90;;;;;;5086356;28;20094;-68
2022/06/10 05:30:34;;;;;;;19.83;3.78;;;14.40;99.90;;;;;;5094856;28;20040;-68
2022/06/10 05:33:01;;;;;;;15.55;3.60;;;14.40;99.90;;;;;;5072994;28;20105;-67
2022/06/10 05:35:27;;;;;;;11.60;3.53;;;14.50;99.90;;;;;;5089273;28;20048;-68
2022/06/10 05:37:53;;;;;;;15.68;3.95;;;14.50;99.90;;;;;;5092108;28;20040;-69
2022/06/10 05:40:22;;;;;;;17.00;3.28;;;14.60;99.90;;;;;;5091674;28;20047;-68
2022/06/10 05:42:48;;;;;;;14.23;3.10;;;14.70;99.90;;;;;;5082685;28;20072;-69
2022/06/10 05:45:17;;;;;;;20.90;3.78;;;14.70;99.90;;;;;;5091853;28;20082;-68
2022/06/10 05:47:44;;;;;;;14.15;3.78;;;14.80;99.90;;;;;;5090456;28;20052;-68
2022/06/10 05:50:22;;;;;;;17.70;3.70;;;14.80;99.90;;;;;;5090586;28;20036;-69
2022/06/10 05:52:48;;;;;;;10.68;2.83;;;14.80;99.90;;;;;;5087709;28;20047;-69
2022/06/10 05:55:14;;;;;;;15.43;3.58;;;14.90;99.90;;;;;;5090635;28;20124;-68
2022/06/10 05:57:40;;;;;;;14.60;2.92;;;14.90;99.90;;;;;;5091340;28;20044;-68
2022/06/10 06:00:14;;;;;;;15.52;3.65;;;14.90;99.90;;;;;;5089058;28;20138;-68
2022/06/10 06:02:41;;;;;;;16.85;4.43;;;15.00;99.90;;;;;;5089157;28;20056;-69
2022/06/10 06:05:09;;;;;;;15.07;3.40;;;15.00;99.90;;;;;;5087133;28;20145;-70
2022/06/10 06:07:35;;;;;;;;;;;15.10;99.90;;;;;;5087796;28;20052;-68
2022/06/10 06:10:01;;;;;;;11.80;3.60;;;15.10;99.90;;;;;;5087872;28;19931;-68
2022/06/10 06:12:27;;;;;;;13.38;3.28;;;15.10;99.90;;;;;;5091292;28;20044;-67
2022/06/10 06:14:53;;;;;;;15.85;4.20;;;15.20;99.90;;;;;;5090251;28;20101;-68
2022/06/10 06:17:19;;;;;;;14.98;3.40;;;15.20;99.90;;;;;;5091261;28;20040;-67
2022/06/10 06:19:45;;;;;;;17.92;3.55;;;15.30;99.90;;;;;;5104652;28;20055;-69
2022/06/10 06:22:11;;;;;;;14.18;3.03;;;15.30;99.90;;;;;;5089718;28;20477;-68
2022/06/10 06:24:38;;;;;;;15.07;4.43;;;15.30;99.90;;;;;;5083534;28;20153;-68
2022/06/10 06:27:10;;;;;;;17.67;4.38;;;15.40;99.90;;;;;;5081741;28;20036;-67
2022/06/10 06:29:35;;;;;;;17.25;3.95;;;15.50;99.90;;;;;;5090969;28;20532;-68
2022/06/10 06:32:05;;;;;;;9.15;3.33;;;15.60;99.90;;;;;;5088792;28;20052;-68
2022/06/10 06:34:30;;;;;;;25.65;4.35;;;15.70;99.90;;;;;;5087139;28;20048;-68
2022/06/10 06:36:57;;;;;;;22.65;4.28;;;15.80;99.90;;;;;;5082552;28;20121;-69
2022/06/10 06:39:24;;;;;;;15.20;4.22;;;16.00;99.90;;;;;;5089521;28;20463;-68
2022/06/10 06:41:51;;;;;;;14.35;4.00;;;16.10;99.90;;;;;;5082247;28;20040;-68
2022/06/10 06:44:17;;;;;;;13.63;4.03;;;16.20;99.90;;;;;;5076866;28;20164;-67
2022/06/10 06:46:43;;;;;;;17.58;4.07;;;16.20;99.90;;;;;;5090918;28;20151;-68
2022/06/10 06:49:15;;;;;;;17.38;4.10;;;16.20;99.90;;;;;;5083365;28;20040;-67
2022/06/10 06:51:41;;;;;;;18.27;4.43;;;16.10;99.90;;;;;;5089734;28;20058;-69
2022/06/10 06:54:08;;;;;;;14.43;4.90;;;16.00;99.90;;;;;;5089587;28;20040;-68
2022/06/10 06:56:34;;;;;;;22.67;5.00;;;15.90;99.90;;;;;;5086929;28;20044;-68
2022/06/10 06:58:59;;;;;;;17.60;5.80;;;16.00;99.90;;;;;;5091188;28;20651;-69
2022/06/10 07:01:25;;;;;;;17.13;5.53;;;15.90;99.90;;;;;;5080577;28;20048;-68
2022/06/10 07:03:51;;;;;;;18.67;4.65;;;16.00;99.90;;;;;;5086879;28;20048;-69
2022/06/10 07:06:17;;;;;;;15.43;4.95;;;16.10;99.90;;;;;;5088351;28;20044;-68
2022/06/10 07:08:42;;;;;;;21.80;4.60;;;16.10;99.90;;;;;;5085753;28;20052;-68
2022/06/10 07:11:08;;;;;;;17.17;4.72;;;16.20;99.90;;;;;;5069287;28;20498;-68
2022/06/10 07:13:36;;;;;;;14.02;4.35;;;16.30;99.90;;;;;;5070566;28;20123;-70
2022/06/10 07:16:03;;;;;;;14.50;4.43;;;16.40;99.90;;;;;;5071147;28;20114;-68
2022/06/10 07:18:30;;;;;;;13.98;4.18;;;16.50;99.90;;;;;;5070613;28;20046;-68
2022/06/10 07:20:56;;;;;;;20.10;4.78;;;16.60;99.90;;;;;;5070206;28;20090;-69
2022/06/10 07:23:22;;;;;;;19.52;4.57;;;16.80;99.90;;;;;;5069026;28;20054;-68
2022/06/10 07:25:48;;;;;;;20.75;4.90;;;16.90;99.90;;;;;;5085868;28;20131;-68
2022/06/10 07:28:14;;;;;;;13.13;4.18;;;16.90;99.90;;;;;;5086623;28;20062;-68
2022/06/10 07:30:44;;;;;;;15.48;4.22;;;16.90;99.90;;;;;;5089872;28;20081;-68
2022/06/10 07:33:10;;;;;;;14.27;4.18;;;16.90;99.90;;;;;;5086430;28;20104;-68
2022/06/10 07:35:37;;;;;;;16.35;4.40;;;16.80;99.90;;;;;;5088625;28;20052;-68
2022/06/10 07:38:03;;;;;;;17.52;4.32;;;16.80;99.90;;;;;;5089685;28;20044;-67
2022/06/10 07:43:23;;;;;;;17.20;4.82;;;16.70;99.90;;;;;;5082496;28;20055;-69
2022/06/10 07:45:49;;;;;;;13.65;4.90;;;16.80;99.90;;;;;;5075676;28;20040;-68
2022/06/10 07:48:15;;;;;;;12.48;4.38;;;16.80;99.90;;;;;;5086589;28;20055;-67
2022/06/10 07:50:43;;;;;;;17.45;5.53;;;16.80;99.90;;;;;;5087187;28;20071;-68
2022/06/10 07:53:10;;;;;;;14.23;4.60;;;16.80;99.90;;;;;;5087895;28;20047;-67
2022/06/10 07:55:37;;;;;;;9.90;4.78;;;16.90;99.90;;;;;;5089060;28;20082;-69
2022/06/10 07:58:03;;;;;;;12.55;4.53;;;17.00;99.90;;;;;;5087454;28;20494;-68
2022/06/10 08:00:29;;;;;;;10.73;4.60;;;17.10;99.90;;;;;;5086956;28;20048;-68
2022/06/10 08:02:57;;;;;;;20.17;5.10;;;17.20;99.90;;;;;;5085426;28;20062;-67
2022/06/10 08:05:27;;;;;;;14.20;5.38;;;17.20;99.90;;;;;;5087228;28;20127;-68
2022/06/10 08:07:52;;;;;;;14.45;4.97;;;17.30;99.90;;;;;;5073163;28;20477;-67
2022/06/10 08:10:28;;;;;;;12.32;4.13;;;17.40;99.90;;;;;;5097839;28;20433;-67
2022/06/10 08:12:54;;;;;;;17.05;4.40;;;17.50;99.90;;;;;;5084109;28;20733;-67
2022/06/10 08:15:22;;;;;;;10.55;4.35;;;17.40;99.90;;;;;;5078536;28;20051;-68
2022/06/10 08:17:50;;;;;;;11.80;4.20;;;17.30;99.90;;;;;;5086065;28;20053;-67
2022/06/10 08:23:30;;;;;;;9.02;4.53;;;17.20;99.90;;;;;;5070754;28;20048;-68
2022/06/10 08:25:59;;;;;;;13.57;5.35;;;17.10;99.90;;;;;;5079171;28;20298;-68
2022/06/10 08:28:25;;;;;;;11.27;4.30;;;17.10;99.90;;;;;;5088901;28;20048;-68
2022/06/10 08:30:52;;;;;;;12.13;4.55;;;17.10;99.90;;;;;;5088758;28;20040;-68
2022/06/10 08:33:18;;;;;;;15.90;5.07;;;17.20;99.90;;;;;;5073454;28;20413;-68
2022/06/10 08:35:45;;;;;;;16.23;5.30;;;17.10;99.90;;;;;;5087292;28;20095;-70
2022/06/10 08:38:13;;;;;;;17.63;5.72;;;17.20;99.90;;;;;;5075608;28;20090;-68
2022/06/10 08:41:01;;;;;;;15.18;4.95;;;17.10;99.90;;;;;;5069399;28;20036;-68
2022/06/10 08:43:39;;;;;;;10.93;5.63;;;17.00;99.90;;;;;;5069318;28;20052;-69
2022/06/10 08:46:29;;;;;;;15.57;5.35;;;17.00;99.90;;;;;;5083715;28;20043;-70
2022/06/10 08:49:20;;;;;;;10.63;5.40;;;17.00;99.90;;;;;;5088201;28;20520;-70
2022/06/10 08:51:57;;;;;;;15.38;4.95;;;17.10;99.90;;;;;;5082729;28;20097;-69
2022/06/10 08:54:40;;;;;;;16.25;5.72;;;17.20;99.90;;;;;;5087908;28;20157;-67
2022/06/10 08:57:23;;;;;;;15.95;6.05;;;17.20;99.90;;;;;;5103461;28;20481;-69
2022/06/10 08:59:50;;;;;;;16.05;5.75;;;17.30;99.90;;;;;;5080435;28;20054;-69
2022/06/10 09:02:41;;;;;;;18.55;5.80;;;17.20;99.90;;;;;;5070603;28;20525;-68
2022/06/10 09:05:07;;;;;;;14.07;5.75;;;17.30;99.90;;;;;;5072301;28;20040;-67
2022/06/10 09:07:47;;;;;;;14.90;5.78;;;17.20;99.90;;;;;;5083657;28;20052;-69
2022/06/10 09:10:25;;;;;;;16.33;5.43;;;17.10;99.90;;;;;;5085356;28;20053;-69
2022/06/10 09:13:06;;;;;;;18.00;5.90;;;17.10;99.90;;;;;;5067317;28;20090;-69
2022/06/10 09:15:37;;;;;;;14.20;6.20;;;17.20;99.90;;;;;;5101729;28;20040;-69
2022/06/10 09:18:11;;;;;;;18.85;5.88;;;17.30;99.90;;;;;;5066812;28;20119;-69
2022/06/10 09:21:01;;;;;;;13.55;5.90;;;17.50;99.90;;;;;;5081051;28;20079;-69
2022/06/10 09:23:39;;;;;;;24.33;6.63;;;17.60;99.90;;;;;;5103316;28;20370;-67
2022/06/10 09:26:10;;;;;;;17.30;6.38;;;17.80;99.90;;;;;;5080139;28;20075;-69
2022/06/10 09:28:39;;;;;;;13.35;5.78;;;17.80;99.90;;;;;;5070912;28;20054;-68
2022/06/10 09:31:18;;;;;;;15.63;5.85;;;18.00;99.90;;;;;;5084681;28;20052;-69
2022/06/10 09:34:07;;;;;;;20.20;6.00;;;18.10;99.90;;;;;;5087217;28;20465;-69
2022/06/10 09:36:38;;;;;;;18.73;5.85;;;18.10;99.90;;;;;;5087190;28;20131;-68
2022/06/10 09:42:25;;;;;;;17.77;5.05;;;18.00;99.90;;;;;;5087127;28;20048;-69
2022/06/10 09:45:00;;;;;;;16.40;4.85;;;17.90;99.90;;;;;;5082443;28;20044;-69
2022/06/10 09:47:55;;;;;;;13.23;4.50;;;17.90;99.90;;;;;;5092863;28;20127;-68
2022/06/10 09:50:49;;;;;;;11.38;5.18;;;17.80;99.90;;;;;;5067686;28;20052;-69
2022/06/10 09:53:36;;;;;;;14.00;5.32;;;17.90;99.90;;;;;;5089020;28;20044;-68
2022/06/10 09:56:18;;;;;;;10.43;4.93;;;17.90;99.90;;;;;;5091584;28;20048;-68
2022/06/10 09:59:03;;;;;;;13.93;4.68;;;17.90;99.90;;;;;;5091786;28;20471;-68
2022/06/10 10:01:45;;;;;;;15.93;5.20;;;17.80;99.90;;;;;;5080680;28;20055;-68
2022/06/10 10:04:40;;;;;;;13.63;4.63;;;17.90;99.90;;;;;;5071902;28;20052;-69
2022/06/10 10:07:18;;;;;;;12.57;4.75;;;18.00;99.90;;;;;;5072195;28;20135;-69
2022/06/10 10:10:14;;;;;;;15.02;4.57;;;18.10;99.90;;;;;;5088887;28;20089;-67
2022/06/10 10:13:01;;;;;;;14.80;5.65;;;18.30;99.90;;;;;;5090292;28;20051;-68
2022/06/10 10:15:42;;;;;;;11.35;4.45;;;18.30;99.90;;;;;;5087365;28;20502;-69
2022/06/10 10:18:41;;;;;;;16.40;5.60;;;18.30;99.90;;;;;;5089558;28;20059;-67
2022/06/10 10:21:09;;;;;;;20.87;5.57;;;18.30;99.90;;;;;;5090494;28;20055;-68
2022/06/10 10:23:43;;;;;;;15.20;5.60;;;18.40;99.90;;;;;;5070101;28;20046;-68
2022/06/10 10:26:28;;;;;;;16.35;5.72;;;18.40;99.90;;;;;;5092001;28;20131;-68
2022/06/10 10:29:20;;;;;;;13.20;5.30;;;18.40;99.90;;;;;;5088649;28;20055;-68
2022/06/10 10:31:48;;;;;;;16.67;5.40;;;18.40;99.90;;;;;;5090461;28;20059;-68
2022/06/10 10:34:21;;;;;;;12.93;5.15;;;18.50;99.90;;;;;;5089086;28;20083;-68
2022/06/10 10:36:54;;;;;;;15.18;5.20;;;18.50;99.90;;;;;;5091448;28;20091;-67
2022/06/10 10:39:35;;;;;;;11.85;4.95;;;18.80;99.90;;;;;;5088662;28;20051;-68
2022/06/10 10:42:16;;;;;;;16.23;5.05;;;18.80;99.90;;;;;;5087416;28;20048;-69
2022/06/10 10:44:46;;;;;;;13.45;5.10;;;19.00;99.90;;;;;;5088036;28;20047;-68
2022/06/10 10:47:17;;;;;;;16.52;5.55;;;19.00;99.90;;;;;;5089838;28;20055;-67
2022/06/10 10:49:46;;;;;;;14.48;5.10;;;19.00;99.90;;;;;;5089670;28;20069;-68
2022/06/10 10:52:20;;;;;;;21.70;5.57;;;19.00;99.90;;;;;;5087321;28;20083;-68
2022/06/10 10:54:51;;;;;;;17.13;5.63;;;19.00;99.90;;;;;;5088379;28;20041;-68
2022/06/10 10:57:31;;;;;;;15.18;5.35;;;18.90;99.90;;;;;;5084591;28;20044;-69
2022/06/10 11:00:05;;;;;;;24.80;6.28;;;18.90;99.90;;;;;;5082411;28;20147;-69
2022/06/10 11:02:45;;;;;;;16.52;5.25;;;18.90;99.90;;;;;;5088810;28;20137;-69
2022/06/10 11:05:17;;;;;;;14.50;4.85;;;18.80;99.90;;;;;;5077703;28;20406;-68
2022/06/10 11:07:45;;;;;;;11.13;5.03;;;18.80;99.90;;;;;;5088071;28;20073;-68
2022/06/10 11:10:23;;;;;;;16.02;6.55;;;18.70;99.90;;;;;;5085905;28;20512;-68
2022/06/10 11:12:50;;;;;;;17.00;5.35;;;18.70;99.90;;;;;;5091742;28;20044;-70
2022/06/10 11:15:30;;;;;;;15.77;5.60;;;18.70;99.90;;;;;;5092576;28;20048;-69
2022/06/10 11:17:58;;;;;;;15.57;5.15;;;18.70;99.90;;;;;;5070133;28;20422;-68
2022/06/10 11:20:27;;;;;;;15.43;4.93;;;18.80;99.90;;;;;;5087743;28;20558;-70
2022/06/10 11:23:20;;;;;;;19.00;5.80;;;18.90;99.90;;;;;;5070645;28;20055;-68
2022/06/10 11:26:10;;;;;;;14.48;5.20;;;19.00;99.90;;;;;;5084436;28;20513;-68
2022/06/10 11:28:39;;;;;;;13.18;5.10;;;19.10;99.90;;;;;;5090546;28;20182;-69
2022/06/10 11:31:21;;;;;;;13.10;4.75;;;19.20;99.90;;;;;;5090377;28;20048;-69
2022/06/10 11:33:49;;;;;;;12.00;4.93;;;19.20;99.90;;;;;;5071169;28;20053;-69
2022/06/10 11:36:32;;;;;;;15.98;5.20;;;19.20;99.90;;;;;;5077716;28;20040;-69
2022/06/10 11:39:27;;;;;;;13.77;4.53;;;19.20;99.90;;;;;;5085522;28;20123;-68
2022/06/10 11:42:09;;;;;;;14.75;4.80;;;19.40;99.90;;;;;;5070231;28;20094;-68
2022/06/10 11:44:58;;;;;;;9.80;4.30;;;19.60;99.90;;;;;;5069630;28;20051;-69
2022/06/10 11:47:55;;;;;;;12.25;4.63;;;19.80;99.90;;;;;;5073309;28;20052;-69
2022/06/10 11:50:39;;;;;;;14.02;4.60;;;19.90;99.90;;;;;;5063389;28;20067;-69
2022/06/10 11:53:17;;;;;;;11.70;3.75;;;19.90;99.90;;;;;;5100920;28;20052;-69
2022/06/10 11:55:46;;;;;;;9.38;4.15;;;19.80;99.90;;;;;;5096380;28;20479;-68
2022/06/10 12:01:27;;;;;;;17.27;4.90;;;19.80;99.90;;;;;;5076879;28;20051;-69
2022/06/10 12:04:25;;;;;;;9.18;4.03;;;19.80;99.90;;;;;;5073176;28;20049;-68
2022/06/10 12:06:56;;;;;;;10.50;3.85;;;19.90;99.90;;;;;;5069832;28;20048;-68
2022/06/10 12:09:27;;;;;;;11.38;3.67;;;20.20;99.90;;;;;;5070408;28;20079;-69
2022/06/10 12:12:20;;;;;;;11.35;3.80;;;20.60;99.90;;;;;;5089465;28;20684;-68
2022/06/10 12:14:50;;;;;;;15.60;4.63;;;21.10;99.90;;;;;;5089049;28;20056;-67
2022/06/10 12:17:30;;;;;;;12.82;3.58;;;21.60;99.90;;;;;;5084117;28;20394;-70
2022/06/10 12:20:10;;;;;;;18.40;3.65;;;21.70;99.90;;;;;;5069568;28;20114;-70
2022/06/10 12:22:36;;;;;;;11.40;3.38;;;21.80;99.90;;;;;;5075764;28;20116;-68
2022/06/10 12:25:18;;;;;;;12.50;4.45;;;21.60;99.90;;;;;;5088948;28;20047;-70
2022/06/10 12:27:58;;;;;;;11.50;4.38;;;21.40;99.90;;;;;;5081732;28;20493;-70
2022/06/10 12:30:36;;;;;;;13.50;4.78;;;21.20;99.90;;;;;;5081413;28;20048;-69
2022/06/10 12:33:02;;;;;;;;;;;21.10;99.90;;;;;;5090071;28;20051;-68
2022/06/10 12:35:34;;;;;;;10.30;4.53;;;21.00;99.90;;;;;;5089441;28;20312;-68
2022/06/10 12:38:21;;;;;;;13.75;4.32;;;20.90;99.90;;;;;;5088996;28;20040;-69
2022/06/10 12:40:53;;;;;;;16.80;5.00;;;20.90;99.90;;;;;;5087659;28;20136;-66
2022/06/10 12:43:36;;;;;;;14.55;4.30;;;20.80;99.90;;;;;;5089125;28;20394;-68
2022/06/10 12:46:16;;;;;;;14.07;4.35;;;20.70;99.90;;;;;;5083431;28;20036;-69
2022/06/10 12:48:46;;;;;;;14.82;4.85;;;20.60;99.90;;;;;;5085458;28;20048;-69
2022/06/10 12:51:12;;;;;;;12.10;4.00;;;20.60;99.90;;;;;;5087258;28;20521;-68
2022/06/10 12:53:49;;;;;;;17.08;4.10;;;20.50;99.90;;;;;;5085521;28;20044;-69
2022/06/10 12:56:33;;;;;;;13.02;4.57;;;20.50;99.90;;;;;;5068800;28;20055;-69
2022/06/10 12:59:07;;;;;;;10.20;3.75;;;20.60;99.90;;;;;;5068938;28;20127;-67
2022/06/10 13:01:33;;;;;;;16.05;4.22;;;20.60;99.90;;;;;;5088923;28;20146;-67
2022/06/10 13:04:15;;;;;;;14.85;4.47;;;20.70;99.90;;;;;;5072700;28;20521;-67
2022/06/10 13:06:43;;;;;;;22.63;4.72;;;20.70;99.90;;;;;;5086232;28;20052;-68
2022/06/10 13:09:12;;;;;;;13.63;4.28;;;20.60;99.90;;;;;;5086458;28;20044;-68
2022/06/10 13:11:40;;;;;;;13.40;4.30;;;20.60;99.90;;;;;;5083605;28;20506;-68
2022/06/10 13:14:13;;;;;;;12.27;4.45;;;20.50;99.90;;;;;;5068548;28;20553;-69
2022/06/10 13:16:46;;;;;;;14.45;4.20;;;20.50;99.90;;;;;;5068496;28;20590;-68
2022/06/10 13:19:35;;;;;;;19.17;4.88;;;20.50;99.90;;;;;;5089050;28;20070;-68
2022/06/10 13:22:19;;;;;;;;;;;20.70;99.90;;;;;;5072430;28;20044;-68
2022/06/10 13:24:53;;;;;;;15.05;4.55;;;20.70;99.90;;;;;;5065111;28;20377;-68
2022/06/10 13:27:34;;;;;;;11.45;3.95;;;20.80;99.90;;;;;;5079566;28;20040;-71